Главная страница
METAR-TAF:

METAR-TAF

Аэропорты :

Тегеран, Иран

Мехрабад

широта: 35-41N, долгота: 051-21E, высота над уровнем моря: 1204 м

Текущие метеонаблюдения

Эта сводка был подготовлена 6 минут назад, в 16:30 UTC
Штиль
Температура 20°C
Влажность 24%
Давление 1020 hPa
Видимость 10 км и более
Нет облачности ниже 1500 м, и нет кучево-дождевой облачности

METAR: OIII 251630Z 00000KT CAVOK 20/M01 Q1019 A3011

Время: 21:06 (16:36 UTC)

Прогноз

Эта сводка был подготовлена 5 часа и 26 минут назад, в 11:10 UTC
Прогноз действительный с 25-го 12 UTC до 26-го 18 UTC
Ветер 10 Узел от юго-восточный
Видимость: 7000 м
временами
С 26-го 06 UTC до 26-го 12 UTC
небольшая облачность на высоте 3500 фута, мощно-кучевые.
Отдельные облака на высоте 4000 фута

TAF: OIII 251110Z 2512/2618 13005MPS 7000 NSC TEMPO 2606/2612 FEW035TCU SCT040

Метеонаблюдения и прогнозы для более 4000 аэропортов (сводки METAR и TAF).

Имеющиеся станции представлены на карте желтыми и красными точками.

Чтобы увидеть название станции, наведите на нее мышь.

Затем щелкните, чтобы увидеть метеонаблюдения и метеопрогнозы.

Управление картой: чтобы увеличить масштаб, щелкните зеленые кнопки с черным крестиком; чтобы уменьшить масштаб, щелкните зеленую кнопку с тире; для просмотра соседних карт щелкайте зеленые стрелки.


METAR-TAF: